createdAt,value
2019-05-21T00:01:25.859Z,13.30
2019-05-21T00:04:30.773Z,13.30
2019-05-21T00:07:36.038Z,13.30
2019-05-21T00:10:40.902Z,13.30
2019-05-21T00:13:45.939Z,13.20
2019-05-21T00:16:51.439Z,13.20
2019-05-21T00:19:56.605Z,13.20
2019-05-21T00:23:01.645Z,13.20
2019-05-21T00:26:06.918Z,13.10
2019-05-21T00:29:47.420Z,13.10
2019-05-21T00:33:28.026Z,13.20
2019-05-21T00:37:09.861Z,13.20
2019-05-21T00:40:50.215Z,13.20
2019-05-21T00:43:59.601Z,13.30
2019-05-21T00:47:05.833Z,13.40
2019-05-21T00:50:12.266Z,13.40
2019-05-21T00:53:17.428Z,13.40
2019-05-21T00:56:22.360Z,13.30
2019-05-21T00:59:27.484Z,13.30
2019-05-21T01:02:32.506Z,13.30
2019-05-21T01:05:37.520Z,13.20
2019-05-21T01:08:42.596Z,13.20
2019-05-21T01:11:47.631Z,13.30
2019-05-21T01:14:53.154Z,13.30
2019-05-21T01:17:58.278Z,13.30
2019-05-21T01:21:03.517Z,13.20
2019-05-21T01:24:08.330Z,13.20
2019-05-21T01:27:13.412Z,13.20
2019-05-21T01:30:18.704Z,13.20
2019-05-21T01:33:24.686Z,13.30
2019-05-21T01:36:29.829Z,13.30
2019-05-21T01:39:34.969Z,13.30
2019-05-21T01:42:39.907Z,13.30
2019-05-21T01:45:44.997Z,13.30
2019-05-21T01:48:50.041Z,13.30
2019-05-21T01:51:55.381Z,13.30
2019-05-21T01:55:00.669Z,13.30
2019-05-21T01:58:06.146Z,13.40
2019-05-21T02:01:12.042Z,13.40
2019-05-21T02:04:17.016Z,13.40
2019-05-21T02:07:22.062Z,13.40
2019-05-21T02:10:27.189Z,13.40
2019-05-21T02:13:32.170Z,13.40
2019-05-21T02:16:37.180Z,13.30
2019-05-21T02:19:42.212Z,13.20
2019-05-21T02:22:47.137Z,13.20
2019-05-21T02:25:52.296Z,13.10
2019-05-21T02:28:57.332Z,13.10
2019-05-21T02:32:02.574Z,13.10
2019-05-21T02:35:07.592Z,13.10
2019-05-21T02:38:13.101Z,13.10
2019-05-21T02:41:17.906Z,13.20
2019-05-21T02:44:22.633Z,13.10
2019-05-21T02:47:27.547Z,13.00
2019-05-21T02:50:32.822Z,13.10
2019-05-21T02:53:37.846Z,13.10
2019-05-21T02:56:43.094Z,13.20
2019-05-21T02:59:49.494Z,13.30
2019-05-21T03:02:54.428Z,13.20
2019-05-21T03:06:13.078Z,13.30
2019-05-21T03:09:07.012Z,13.30
2019-05-21T03:12:12.028Z,13.40
2019-05-21T03:15:17.106Z,13.40
2019-05-21T03:18:22.437Z,13.40
2019-05-21T03:21:27.493Z,13.30
2019-05-21T03:24:32.803Z,13.30
2019-05-21T03:27:39.040Z,13.30
2019-05-21T03:30:44.585Z,13.30
2019-05-21T03:33:49.499Z,13.40
2019-05-21T03:36:54.633Z,13.40
2019-05-21T03:39:59.686Z,13.40
2019-05-21T03:43:04.770Z,13.40
2019-05-21T03:46:09.877Z,13.50
2019-05-21T03:49:15.094Z,13.40
2019-05-21T03:52:20.070Z,13.50
2019-05-21T03:55:25.197Z,13.50
2019-05-21T03:58:30.034Z,13.60
2019-05-21T04:01:35.070Z,13.70
2019-05-21T04:04:40.594Z,13.80
2019-05-21T04:07:45.573Z,13.90
2019-05-21T04:10:50.390Z,14.00
2019-05-21T04:13:55.293Z,14.00
2019-05-21T04:17:06.636Z,14.10
2019-05-21T04:20:13.439Z,14.20
2019-05-21T04:23:18.453Z,14.10
2019-05-21T04:26:23.531Z,14.20
2019-05-21T04:29:28.628Z,14.20
2019-05-21T04:32:33.823Z,14.40
2019-05-21T04:35:38.813Z,14.50
2019-05-21T04:38:43.905Z,14.60
2019-05-21T04:41:48.884Z,14.70
2019-05-21T04:44:53.976Z,14.90
2019-05-21T04:47:58.949Z,15.10
2019-05-21T04:51:04.057Z,15.20
2019-05-21T04:54:09.054Z,15.30
2019-05-21T04:57:14.039Z,15.50
2019-05-21T05:00:19.031Z,15.70
2019-05-21T05:03:24.033Z,15.80
2019-05-21T05:06:29.250Z,16.00
2019-05-21T05:09:34.321Z,16.10
2019-05-21T05:12:39.490Z,16.10
2019-05-21T05:15:44.481Z,16.30
2019-05-21T05:18:49.751Z,16.50
2019-05-21T05:21:54.566Z,16.80
2019-05-21T05:24:59.564Z,17.10
2019-05-21T05:28:04.449Z,17.50
2019-05-21T05:31:10.105Z,17.70
2019-05-21T05:34:15.190Z,18.10
2019-05-21T05:37:20.439Z,18.50
2019-05-21T05:40:25.427Z,18.90
2019-05-21T05:43:30.705Z,19.10
2019-05-21T05:46:35.597Z,19.40
2019-05-21T05:49:44.524Z,19.60
2019-05-21T05:52:49.523Z,19.70
2019-05-21T05:55:54.648Z,19.70
2019-05-21T05:58:59.643Z,19.80
2019-05-21T06:02:04.673Z,20.00
2019-05-21T06:05:10.114Z,20.00
2019-05-21T06:08:15.108Z,20.30
2019-05-21T06:11:20.199Z,20.40
2019-05-21T06:14:25.163Z,20.60
2019-05-21T06:17:30.011Z,20.60
2019-05-21T06:20:34.949Z,20.60
2019-05-21T06:23:39.960Z,20.50
2019-05-21T06:26:44.901Z,20.30
2019-05-21T06:29:49.756Z,20.00
2019-05-21T06:32:54.781Z,19.70
2019-05-21T06:35:59.849Z,19.50
2019-05-21T06:39:06.501Z,19.20
2019-05-21T06:42:11.377Z,18.90
2019-05-21T06:45:16.859Z,18.50
2019-05-21T06:48:21.814Z,18.30
2019-05-21T06:51:26.748Z,18.30
2019-05-21T06:54:31.823Z,18.50
2019-05-21T06:57:36.714Z,18.50
2019-05-21T07:00:41.662Z,18.40
2019-05-21T07:03:46.841Z,18.40
2019-05-21T07:06:52.053Z,18.30
2019-05-21T07:09:57.004Z,18.40
2019-05-21T07:13:02.017Z,18.40
2019-05-21T07:16:06.965Z,18.40
2019-05-21T07:19:11.927Z,18.60
2019-05-21T07:22:16.981Z,18.60
2019-05-21T07:25:21.896Z,18.70
2019-05-21T07:28:27.119Z,18.70
2019-05-21T07:31:32.394Z,18.90
2019-05-21T07:34:37.391Z,19.10
2019-05-21T07:37:42.404Z,19.10
2019-05-21T07:40:47.477Z,19.20
2019-05-21T07:43:52.730Z,19.30
2019-05-21T07:46:57.757Z,19.30
2019-05-21T07:50:03.154Z,19.40
2019-05-21T07:53:08.178Z,19.60
2019-05-21T07:56:13.238Z,19.60
2019-05-21T07:59:18.238Z,19.70
2019-05-21T08:02:23.130Z,19.70
2019-05-21T08:05:28.087Z,19.80
2019-05-21T08:08:33.238Z,20.00
2019-05-21T08:11:38.272Z,20.00
2019-05-21T08:14:43.277Z,19.90
2019-05-21T08:17:48.158Z,19.90
2019-05-21T08:20:53.252Z,19.80
2019-05-21T08:23:58.424Z,19.70
2019-05-21T08:27:03.467Z,19.80
2019-05-21T08:30:08.619Z,19.90
2019-05-21T08:33:13.761Z,20.00
2019-05-21T08:36:18.718Z,19.80
2019-05-21T08:39:28.669Z,19.70
2019-05-21T08:42:30.817Z,19.60
2019-05-21T08:45:35.778Z,19.50
2019-05-21T08:48:40.757Z,19.50
2019-05-21T08:51:45.769Z,19.40
2019-05-21T08:54:51.253Z,19.50
2019-05-21T08:58:06.292Z,19.30
2019-05-21T09:01:03.302Z,19.20
2019-05-21T09:04:08.208Z,19.20
2019-05-21T09:07:13.426Z,19.20
2019-05-21T09:10:19.093Z,19.10
2019-05-21T09:13:24.062Z,19.00
2019-05-21T09:16:29.066Z,19.10
2019-05-21T09:19:36.414Z,19.10
2019-05-21T09:22:41.087Z,19.30
2019-05-21T09:25:49.451Z,19.30
2019-05-21T09:28:53.254Z,19.40
2019-05-21T09:31:58.220Z,19.50
2019-05-21T09:35:14.510Z,19.50
2019-05-21T09:38:19.399Z,19.40
2019-05-21T09:41:24.597Z,19.40
2019-05-21T09:44:29.532Z,19.30
2019-05-21T09:47:34.525Z,19.20
2019-05-21T09:50:39.624Z,19.30
2019-05-21T09:53:44.691Z,19.40
2019-05-21T09:56:49.658Z,19.40
2019-05-21T10:00:00.587Z,19.40
2019-05-21T10:03:07.545Z,19.30
2019-05-21T10:06:12.467Z,19.20
2019-05-21T10:09:19.474Z,19.20
2019-05-21T10:12:24.487Z,19.40
2019-05-21T10:15:29.262Z,19.50
2019-05-21T10:18:34.714Z,19.70
2019-05-21T10:21:40.059Z,20.10
2019-05-21T10:24:45.098Z,20.50
2019-05-21T10:27:49.923Z,20.70
2019-05-21T10:30:54.901Z,20.80
2019-05-21T10:33:59.931Z,20.60
2019-05-21T10:37:05.117Z,20.50
2019-05-21T10:40:11.074Z,20.70
2019-05-21T10:43:16.132Z,20.70
2019-05-21T10:46:21.069Z,20.70
2019-05-21T10:49:26.049Z,20.50
2019-05-21T10:52:31.063Z,20.30
2019-05-21T10:55:35.982Z,20.20
2019-05-21T10:58:41.148Z,20.30
2019-05-21T11:02:15.110Z,20.30
2019-05-21T11:05:41.837Z,20.20
2019-05-21T11:08:46.906Z,20.20
2019-05-21T11:11:52.514Z,20.20
2019-05-21T11:14:57.645Z,20.20
2019-05-21T11:18:10.445Z,20.10
2019-05-21T11:21:09.231Z,20.00
2019-05-21T11:24:14.477Z,20.00
2019-05-21T11:27:19.536Z,20.00
2019-05-21T11:30:24.483Z,20.10
2019-05-21T11:33:29.636Z,20.10
2019-05-21T11:36:34.771Z,20.10
2019-05-21T11:39:39.980Z,20.10
2019-05-21T11:42:44.942Z,20.20
2019-05-21T11:45:49.889Z,20.20
2019-05-21T11:48:54.810Z,20.10
2019-05-21T11:51:59.951Z,20.00
2019-05-21T11:55:05.109Z,19.90
2019-05-21T11:58:10.234Z,19.90
2019-05-21T12:01:15.281Z,19.90
2019-05-21T12:04:20.238Z,19.90
2019-05-21T12:07:25.253Z,19.90
2019-05-21T12:10:30.248Z,20.20
2019-05-21T12:13:35.522Z,20.60
2019-05-21T12:16:40.414Z,20.80
2019-05-21T12:19:47.154Z,21.00
2019-05-21T12:22:52.384Z,21.00
2019-05-21T12:25:58.368Z,21.10
2019-05-21T12:29:03.184Z,21.10
2019-05-21T12:32:08.269Z,21.20
2019-05-21T12:35:13.765Z,21.20
2019-05-21T12:38:18.929Z,21.10
2019-05-21T12:41:23.978Z,21.10
2019-05-21T12:44:29.105Z,21.00
2019-05-21T12:47:34.704Z,21.10
2019-05-21T12:50:39.779Z,21.00
2019-05-21T12:53:45.029Z,21.00
2019-05-21T12:56:50.033Z,20.90
2019-05-21T12:59:55.065Z,20.70
2019-05-21T13:02:59.949Z,20.60
2019-05-21T13:06:05.392Z,20.50
2019-05-21T13:09:10.281Z,20.50
2019-05-21T13:12:15.233Z,20.50
2019-05-21T13:15:20.284Z,20.50
2019-05-21T13:18:25.292Z,20.50
2019-05-21T13:21:30.471Z,20.50
2019-05-21T13:24:35.362Z,20.70
2019-05-21T13:27:40.875Z,20.80
2019-05-21T13:30:46.130Z,20.90
2019-05-21T13:33:51.525Z,20.60
2019-05-21T13:36:56.670Z,20.50
2019-05-21T13:40:21.118Z,20.40
2019-05-21T13:43:26.149Z,20.20
2019-05-21T13:46:31.144Z,20.20
2019-05-21T13:49:36.182Z,20.20
2019-05-21T13:52:41.292Z,20.30
2019-05-21T13:55:46.399Z,20.20
2019-05-21T13:58:51.471Z,20.10
2019-05-21T14:01:57.076Z,20.10
2019-05-21T14:05:02.572Z,20.10
2019-05-21T14:08:07.917Z,20.10
2019-05-21T14:11:13.324Z,20.00
2019-05-21T14:14:18.518Z,20.00
2019-05-21T14:17:23.559Z,20.00
2019-05-21T14:20:28.498Z,20.00
2019-05-21T14:23:33.605Z,20.00
2019-05-21T14:26:38.632Z,20.00
2019-05-21T14:29:43.872Z,20.00
2019-05-21T14:32:49.251Z,20.10
2019-05-21T14:35:54.560Z,20.10
2019-05-21T14:38:59.553Z,20.20
2019-05-21T14:42:04.678Z,20.20
2019-05-21T14:45:10.355Z,20.20
2019-05-21T14:48:15.440Z,20.30
2019-05-21T14:51:20.700Z,20.40
2019-05-21T14:54:27.151Z,20.50
2019-05-21T14:57:32.444Z,20.40
2019-05-21T15:00:37.958Z,20.30
2019-05-21T15:03:42.856Z,20.20
2019-05-21T15:06:47.826Z,20.20
2019-05-21T15:09:53.667Z,20.40
2019-05-21T15:12:59.127Z,20.40
2019-05-21T15:16:05.443Z,20.40
2019-05-21T15:19:11.525Z,20.30
2019-05-21T15:22:16.585Z,20.40
2019-05-21T15:25:21.576Z,20.50
2019-05-21T15:28:26.578Z,20.30
2019-05-21T15:31:31.758Z,20.40
2019-05-21T15:34:36.868Z,20.40
2019-05-21T15:37:44.993Z,20.30
2019-05-21T15:41:06.594Z,20.40
2019-05-21T15:43:55.282Z,20.40
2019-05-21T15:47:00.253Z,20.50
2019-05-21T15:50:05.861Z,20.50
2019-05-21T15:53:10.936Z,20.50
2019-05-21T15:56:16.046Z,20.50
2019-05-21T15:59:21.035Z,20.60
2019-05-21T16:02:26.337Z,20.60
2019-05-21T16:05:31.511Z,20.70
2019-05-21T16:08:36.478Z,20.60
2019-05-21T16:11:41.513Z,20.60
2019-05-21T16:14:46.576Z,20.50
2019-05-21T16:17:51.825Z,20.50
2019-05-21T16:20:56.940Z,20.30
2019-05-21T16:24:02.126Z,20.20
2019-05-21T16:27:07.217Z,20.10
2019-05-21T16:30:12.457Z,20.10
2019-05-21T16:33:17.821Z,20.20
2019-05-21T16:36:22.921Z,20.20
2019-05-21T16:39:30.873Z,20.30
2019-05-21T16:42:35.902Z,20.30
2019-05-21T16:45:41.037Z,20.30
2019-05-21T16:48:46.190Z,20.30
2019-05-21T16:51:51.467Z,20.30
2019-05-21T16:54:56.481Z,20.20
2019-05-21T16:58:01.499Z,20.20
2019-05-21T17:01:07.945Z,20.20
2019-05-21T17:04:12.907Z,20.20
2019-05-21T17:07:17.753Z,20.10
2019-05-21T17:10:23.066Z,20.00
2019-05-21T17:13:28.381Z,20.00
2019-05-21T17:16:33.415Z,20.00
2019-05-21T17:19:38.571Z,19.80
2019-05-21T17:22:43.605Z,19.80
2019-05-21T17:25:48.610Z,19.80
2019-05-21T17:28:53.546Z,19.80
2019-05-21T17:31:58.620Z,19.80
2019-05-21T17:35:03.794Z,19.80
2019-05-21T17:38:09.089Z,19.80
2019-05-21T17:41:14.659Z,19.70
2019-05-21T17:44:19.932Z,19.70
2019-05-21T17:47:25.324Z,19.70
2019-05-21T17:50:30.653Z,19.70
2019-05-21T17:53:35.758Z,19.60
2019-05-21T17:56:40.708Z,19.60
2019-05-21T17:59:46.491Z,19.50
2019-05-21T18:02:52.082Z,19.50
2019-05-21T18:05:58.215Z,19.40
2019-05-21T18:09:05.396Z,19.40
2019-05-21T18:12:12.460Z,19.30
2019-05-21T18:15:18.021Z,19.30
2019-05-21T18:18:24.170Z,19.20
2019-05-21T18:21:30.202Z,19.10
2019-05-21T18:24:36.160Z,19.10
2019-05-21T18:27:41.702Z,19.00
2019-05-21T18:30:47.110Z,19.00
2019-05-21T18:33:52.250Z,18.90
2019-05-21T18:36:57.444Z,18.90
2019-05-21T18:40:02.459Z,18.80
2019-05-21T18:43:07.624Z,18.80
2019-05-21T18:46:12.824Z,18.70
2019-05-21T18:49:18.071Z,18.80
2019-05-21T18:52:23.425Z,18.70
2019-05-21T18:55:28.634Z,18.70
2019-05-21T18:58:33.852Z,18.60
2019-05-21T19:01:38.756Z,18.50
2019-05-21T19:04:44.000Z,18.50
2019-05-21T19:07:49.081Z,18.40
2019-05-21T19:10:54.046Z,18.30
2019-05-21T19:13:59.645Z,18.20
2019-05-21T19:17:04.901Z,18.10
2019-05-21T19:20:12.534Z,18.10
2019-05-21T19:23:17.600Z,18.00
2019-05-21T19:26:23.437Z,18.00
2019-05-21T19:29:28.652Z,18.00
2019-05-21T19:32:33.963Z,18.00
2019-05-21T19:35:39.432Z,18.10
2019-05-21T19:38:44.948Z,18.00
2019-05-21T19:41:50.446Z,18.10
2019-05-21T19:44:55.753Z,18.00
2019-05-21T19:48:00.978Z,18.10
2019-05-21T19:51:06.427Z,18.10
2019-05-21T19:54:12.673Z,18.00
2019-05-21T19:57:19.951Z,18.00
2019-05-21T20:00:26.493Z,18.00
2019-05-21T20:03:31.721Z,18.00
2019-05-21T20:06:37.523Z,17.90
2019-05-21T20:09:44.033Z,17.90
2019-05-21T20:12:49.415Z,17.80
2019-05-21T20:15:54.636Z,17.80
2019-05-21T20:18:59.816Z,17.70
2019-05-21T20:22:06.875Z,17.70
2019-05-21T20:25:12.761Z,17.70
2019-05-21T20:28:18.824Z,17.60
2019-05-21T20:31:23.916Z,17.50
2019-05-21T20:34:29.791Z,17.50
2019-05-21T20:37:36.335Z,17.40
2019-05-21T20:40:41.692Z,17.30
2019-05-21T20:43:58.190Z,17.20
2019-05-21T20:46:55.365Z,17.10
2019-05-21T20:50:00.621Z,17.00
2019-05-21T20:53:08.812Z,17.00
2019-05-21T20:56:13.878Z,16.90
2019-05-21T20:59:19.149Z,16.80
2019-05-21T21:02:23.988Z,16.80
2019-05-21T21:05:29.027Z,16.70
2019-05-21T21:08:36.653Z,16.60
2019-05-21T21:11:42.583Z,16.50
2019-05-21T21:14:48.730Z,16.60
2019-05-21T21:17:53.740Z,16.60
2019-05-21T21:20:59.141Z,16.60
2019-05-21T21:24:04.520Z,16.50
2019-05-21T21:27:10.501Z,16.50
2019-05-21T21:30:16.018Z,16.50
2019-05-21T21:33:22.094Z,16.50
2019-05-21T21:36:27.060Z,16.50
2019-05-21T21:39:32.297Z,16.40
2019-05-21T21:42:37.442Z,16.40
2019-05-21T21:45:42.957Z,16.40
2019-05-21T21:48:48.145Z,16.40
2019-05-21T21:51:53.409Z,16.40
2019-05-21T21:54:58.546Z,16.50
2019-05-21T21:58:04.041Z,16.40
2019-05-21T22:01:32.719Z,16.50
2019-05-21T22:04:37.935Z,16.40
2019-05-21T22:07:43.343Z,16.40
2019-05-21T22:10:49.121Z,16.30
2019-05-21T22:13:54.324Z,16.30
2019-05-21T22:16:59.627Z,16.20
2019-05-21T22:20:06.129Z,16.20
2019-05-21T22:23:12.812Z,16.20
2019-05-21T22:26:18.031Z,16.20
2019-05-21T22:29:23.349Z,16.20
2019-05-21T22:32:29.020Z,16.20
2019-05-21T22:35:34.284Z,16.20
2019-05-21T22:38:39.185Z,16.10
2019-05-21T22:41:44.324Z,16.20
2019-05-21T22:44:49.502Z,16.10
2019-05-21T22:47:54.658Z,16.10
2019-05-21T22:50:59.502Z,16.00
2019-05-21T22:54:04.590Z,16.10
2019-05-21T22:57:09.878Z,16.10
2019-05-21T23:00:15.125Z,16.10
2019-05-21T23:03:20.045Z,16.10
2019-05-21T23:06:25.494Z,16.10
2019-05-21T23:09:30.408Z,16.10
2019-05-21T23:12:35.946Z,16.00
2019-05-21T23:15:41.462Z,15.90
2019-05-21T23:18:47.901Z,15.80
2019-05-21T23:21:53.549Z,15.70
2019-05-21T23:24:58.977Z,15.70
2019-05-21T23:28:05.284Z,15.70
2019-05-21T23:31:12.047Z,15.80
2019-05-21T23:34:18.994Z,15.70
2019-05-21T23:37:25.460Z,15.70
2019-05-21T23:40:31.452Z,15.70
2019-05-21T23:43:36.646Z,15.70
2019-05-21T23:46:41.841Z,15.70
2019-05-21T23:49:47.154Z,15.60
2019-05-21T23:52:52.692Z,15.60
2019-05-21T23:55:57.913Z,15.50
2019-05-21T23:59:03.615Z,15.50
